Etihad Airways Virtual Airport Information Service

Doha Hamad International Airport

ICAO: OTHH Country: Qatar
Latitude: 25.2731 Longitude: 51.6081
Latest Arrival : QTR1127 (OOMS-OTHH) Latest Departure : QTR245 (OTHH-LTBA)


WX CaptureLIVE
Data provided by noaa.gov | Recorded at 17:25:08

METAR : OTHH 081700Z AUTO 12005KT CAVOK 38/19 Q0994 NOSIG

TAF : OTHH 081100Z 0812/0918 09007KT CAVOK BECMG 0819/0821 27005KT BECMG 0906/0908 04008KT TEMPO 0906/0912 06012KT


Runway Data for OTHH
Data provided by openaviationdata.com

Runway ID Mag Var Hdg Length Elevation Surface ILS Freq ILS Id ILS Slope

Doha Hamad International Airport, Qatar
Use only for reference purposes